Time;durP1;ratioP1;P1;durP2;ratioP2;P2;SDS_P1;SDS_P2;PMS_P1;PMS_P2;Temp;Humidity;BMP_temperature;BMP_pressure;BME280_temperature;BME280_humidity;BME280_pressure;Samples;Min_cycle;Max_cycle;Signal;HPM_P1;HPM_P2
2022/10/05 00:01:45;;;;;;;108.28;38.60;;;;;;;;;;6168561;28;20038;-51
2022/10/05 00:04:48;;;;;;;100.85;35.03;;;;;;;;;;6167615;28;20145;-52
2022/10/05 00:07:49;;;;;;;;;;;;;;;;;;6161915;28;20050;-52
2022/10/05 00:10:50;;;;;;;89.95;34.90;;;;;;;;;;6161833;28;20020;-50
2022/10/05 00:13:51;;;;;;;95.70;37.23;;;;;;;;;;6161365;28;20042;-55
2022/10/05 00:16:52;;;;;;;105.63;38.00;;;;;;;;;;6161255;28;20819;-51
2022/10/05 00:19:53;;;;;;;82.00;31.98;;;;;;;;;;6161566;28;20101;-52
2022/10/05 00:22:57;;;;;;;84.38;30.95;;;;;;;;;;6160837;28;20169;-51
2022/10/05 00:26:33;;;;;;;93.07;32.35;;;;;;;;;;6158702;28;20049;-55
2022/10/05 00:29:34;;;;;;;79.57;31.90;;;;;;;;;;6144069;28;20109;-53
2022/10/05 00:32:34;;;;;;;81.45;31.63;;;;;;;;;;6160799;28;20051;-52
2022/10/05 00:35:35;;;;;;;72.82;28.98;;;;;;;;;;6162596;28;20043;-53
2022/10/05 00:38:36;;;;;;;84.32;30.58;;;;;;;;;;6160021;28;20047;-51
2022/10/05 00:41:59;;;;;;;78.20;30.85;;;;;;;;;;6165068;28;20469;-51
2022/10/05 00:45:05;;;;;;;;;;;;;;;;;;6160905;28;20051;-53
2022/10/05 00:48:15;;;;;;;88.90;31.40;;;;;;;;;;6161488;28;20021;-53
2022/10/05 00:51:35;;;;;;;81.57;28.70;;;;;;;;;;6159937;28;20043;-55
2022/10/05 00:54:43;;;;;;;82.90;30.70;;;;;;;;;;6165662;28;20792;-53
2022/10/05 00:58:00;;;;;;;87.32;31.85;;;;;;;;;;6166823;28;20047;-50
2022/10/05 01:01:30;;;;;;;79.63;29.88;;;;;;;;;;6166237;28;20069;-51
2022/10/05 01:04:39;;;;;;;76.57;30.02;;;;;;;;;;6163980;28;20054;-52
2022/10/05 01:07:46;;;;;;;82.75;29.58;;;;;;;;;;6166452;28;20518;-53
2022/10/05 01:10:50;;;;;;;78.60;28.73;;;;;;;;;;6165456;28;20070;-54
2022/10/05 01:14:05;;;;;;;83.05;29.15;;;;;;;;;;6164400;28;20045;-53
2022/10/05 01:17:19;;;;;;;85.05;30.70;;;;;;;;;;6160926;28;20465;-52
2022/10/05 01:20:34;;;;;;;85.90;31.52;;;;;;;;;;6165008;28;20097;-55
2022/10/05 01:23:51;;;;;;;89.15;31.23;;;;;;;;;;6165166;28;20053;-57
2022/10/05 01:27:09;;;;;;;83.93;30.70;;;;;;;;;;6163854;28;20043;-54
2022/10/05 01:30:16;;;;;;;87.72;29.23;;;;;;;;;;6161888;28;20116;-52
2022/10/05 01:33:19;;;;;;;85.60;30.70;;;;;;;;;;6165185;28;20042;-54
2022/10/05 01:36:26;;;;;;;81.03;30.02;;;;;;;;;;6163793;28;20196;-51
2022/10/05 01:39:47;;;;;;;95.35;31.00;;;;;;;;;;6161928;28;20585;-51
2022/10/05 01:43:10;;;;;;;76.28;28.27;;;;;;;;;;6164785;28;20043;-55
2022/10/05 01:46:37;;;;;;;85.32;28.88;;;;;;;;;;6163206;28;20058;-54
2022/10/05 01:49:47;;;;;;;79.00;27.05;;;;;;;;;;6163603;28;20053;-55
2022/10/05 01:53:10;;;;;;;73.45;26.17;;;;;;;;;;6163891;28;20073;-52
2022/10/05 01:56:21;;;;;;;79.97;28.38;;;;;;;;;;6162649;28;20054;-51
2022/10/05 01:59:24;;;;;;;72.97;26.30;;;;;;;;;;6164515;28;20801;-52
2022/10/05 02:02:29;;;;;;;72.88;26.83;;;;;;;;;;6162968;28;20411;-51
2022/10/05 02:05:54;;;;;;;75.63;29.40;;;;;;;;;;6161787;28;20054;-54
2022/10/05 02:09:18;;;;;;;80.88;30.00;;;;;;;;;;6162809;28;20184;-54
2022/10/05 02:12:22;;;;;;;95.57;33.70;;;;;;;;;;6164507;28;20422;-53
2022/10/05 02:15:31;;;;;;;84.35;30.35;;;;;;;;;;6167093;28;20049;-54
2022/10/05 02:18:48;;;;;;;83.47;30.42;;;;;;;;;;6163588;28;20138;-53
2022/10/05 02:22:03;;;;;;;73.45;29.80;;;;;;;;;;6163662;28;20043;-53
2022/10/05 02:25:12;;;;;;;83.85;30.08;;;;;;;;;;6164261;28;20070;-54
2022/10/05 02:28:26;;;;;;;81.40;28.83;;;;;;;;;;6164805;28;20042;-51
2022/10/05 02:31:38;;;;;;;78.55;28.30;;;;;;;;;;6163126;28;20051;-50
2022/10/05 02:34:41;;;;;;;75.10;28.88;;;;;;;;;;6163925;28;20487;-51
2022/10/05 02:38:17;;;;;;;81.55;28.45;;;;;;;;;;6166377;28;20291;-53
2022/10/05 02:41:29;;;;;;;80.28;29.60;;;;;;;;;;6145530;28;20050;-55
2022/10/05 02:44:57;;;;;;;91.50;31.02;;;;;;;;;;6162218;28;20059;-60
2022/10/05 02:48:26;;;;;;;90.88;31.23;;;;;;;;;;6163177;28;20046;-53
2022/10/05 02:51:33;;;;;;;79.40;28.95;;;;;;;;;;6163845;28;20649;-54
2022/10/05 02:55:15;;;;;;;78.93;29.35;;;;;;;;;;6163825;28;20384;-54
2022/10/05 02:58:23;;;;;;;93.20;34.10;;;;;;;;;;6162540;28;20058;-55
2022/10/05 03:01:26;;;;;;;85.68;31.42;;;;;;;;;;6161719;28;20078;-57
2022/10/05 03:04:45;;;;;;;91.07;32.28;;;;;;;;;;6163447;28;20145;-50
2022/10/05 03:07:58;;;;;;;82.95;31.38;;;;;;;;;;6160116;28;20047;-56
2022/10/05 03:10:58;;;;;;;;;;;;;;;;;;6161596;28;20235;-55
2022/10/05 03:14:08;;;;;;;85.15;31.92;;;;;;;;;;6161166;28;19954;-55
2022/10/05 03:17:19;;;;;;;81.00;32.78;;;;;;;;;;6159827;28;20089;-54
2022/10/05 03:20:24;;;;;;;90.68;34.55;;;;;;;;;;6161562;28;20406;-54
2022/10/05 03:23:37;;;;;;;97.57;37.15;;;;;;;;;;6157776;28;20043;-55
2022/10/05 03:26:46;;;;;;;89.50;33.92;;;;;;;;;;6159741;28;20061;-56
2022/10/05 03:30:16;;;;;;;86.60;31.23;;;;;;;;;;6162797;28;20038;-55
2022/10/05 03:33:37;;;;;;;84.97;32.40;;;;;;;;;;6161725;28;20489;-54
2022/10/05 03:36:48;;;;;;;90.03;33.40;;;;;;;;;;6161388;28;20126;-53
2022/10/05 03:40:08;;;;;;;83.63;31.98;;;;;;;;;;6158289;28;20870;-55
2022/10/05 03:43:22;;;;;;;71.50;30.40;;;;;;;;;;6164165;28;20799;-55
2022/10/05 03:46:44;;;;;;;86.82;31.27;;;;;;;;;;6161518;28;20598;-54
2022/10/05 03:50:24;;;;;;;90.32;33.38;;;;;;;;;;6161500;28;20055;-55
2022/10/05 03:53:29;;;;;;;90.32;33.13;;;;;;;;;;6161062;28;20100;-54
2022/10/05 03:56:53;;;;;;;84.43;33.70;;;;;;;;;;6164257;28;20078;-53
2022/10/05 04:00:05;;;;;;;87.85;33.45;;;;;;;;;;6168902;28;20054;-54
2022/10/05 04:03:06;;;;;;;;;;;;;;;;;;6169100;28;20049;-52
2022/10/05 04:06:17;;;;;;;85.05;32.22;;;;;;;;;;6166280;28;19922;-54
2022/10/05 04:09:30;;;;;;;78.10;30.27;;;;;;;;;;6160413;28;20477;-52
2022/10/05 04:12:34;;;;;;;;;;;;;;;;;;6160241;28;20399;-51
2022/10/05 04:15:41;;;;;;;91.25;34.55;;;;;;;;;;6161749;28;20406;-54
2022/10/05 04:18:53;;;;;;;100.00;36.08;;;;;;;;;;6160415;28;20042;-55
2022/10/05 04:22:12;;;;;;;97.28;38.80;;;;;;;;;;6160475;28;20054;-55
2022/10/05 04:25:15;;;;;;;103.65;38.75;;;;;;;;;;6159310;28;20149;-53
2022/10/05 04:28:40;;;;;;;101.28;37.45;;;;;;;;;;6164962;28;20058;-53
2022/10/05 04:31:50;;;;;;;91.03;35.03;;;;;;;;;;6172908;28;20047;-54
2022/10/05 04:35:02;;;;;;;113.32;39.13;;;;;;;;;;6171219;28;20177;-54
2022/10/05 04:38:15;;;;;;;100.28;36.65;;;;;;;;;;6166321;28;20130;-54
2022/10/05 04:41:34;;;;;;;109.57;39.78;;;;;;;;;;6167142;28;20494;-53
2022/10/05 04:45:01;;;;;;;106.85;38.38;;;;;;;;;;6164274;28;20069;-52
2022/10/05 04:48:28;;;;;;;109.60;41.05;;;;;;;;;;6166684;28;20578;-55
2022/10/05 04:52:00;;;;;;;129.15;47.88;;;;;;;;;;6165921;28;21171;-58
2022/10/05 04:55:19;;;;;;;123.65;43.40;;;;;;;;;;6168947;28;20070;-52
2022/10/05 04:58:39;;;;;;;119.43;43.72;;;;;;;;;;6160734;28;20133;-57
2022/10/05 05:01:55;;;;;;;111.47;42.25;;;;;;;;;;6155658;28;20049;-60
2022/10/05 05:05:22;;;;;;;125.05;46.90;;;;;;;;;;6158006;28;20063;-60
2022/10/05 05:08:38;;;;;;;117.35;44.72;;;;;;;;;;6153735;28;20513;-61
2022/10/05 05:11:39;;;;;;;110.38;40.45;;;;;;;;;;6151261;28;20051;-60
2022/10/05 05:14:58;;;;;;;119.03;42.05;;;;;;;;;;6152483;28;20766;-60
2022/10/05 05:18:30;;;;;;;114.53;42.53;;;;;;;;;;6159013;28;20058;-58
2022/10/05 05:21:58;;;;;;;108.10;40.17;;;;;;;;;;6162655;28;20458;-52
2022/10/05 05:25:03;;;;;;;113.78;40.28;;;;;;;;;;6161747;28;20083;-60
2022/10/05 05:28:14;;;;;;;102.20;39.05;;;;;;;;;;6160451;28;20065;-63
2022/10/05 05:31:31;;;;;;;108.32;41.05;;;;;;;;;;6161618;28;20146;-50
2022/10/05 05:34:49;;;;;;;113.90;40.63;;;;;;;;;;6161447;28;20067;-53
2022/10/05 05:38:34;;;;;;;119.15;42.60;;;;;;;;;;6160904;28;20043;-54
2022/10/05 05:41:44;;;;;;;196.73;72.78;;;;;;;;;;6146091;28;20063;-56
2022/10/05 05:44:49;;;;;;;142.90;52.70;;;;;;;;;;6160757;28;20062;-54
2022/10/05 05:47:53;;;;;;;135.48;51.15;;;;;;;;;;6162371;28;20056;-53
2022/10/05 05:51:08;;;;;;;120.85;46.47;;;;;;;;;;6157042;28;20054;-49
2022/10/05 05:54:15;;;;;;;136.07;50.60;;;;;;;;;;6158788;28;20051;-51
2022/10/05 05:57:22;;;;;;;151.55;59.58;;;;;;;;;;6158102;28;20054;-51
2022/10/05 06:00:29;;;;;;;131.27;44.58;;;;;;;;;;6158187;28;20161;-54
2022/10/05 06:03:47;;;;;;;131.82;48.60;;;;;;;;;;6159685;28;20884;-54
2022/10/05 06:06:51;;;;;;;112.28;44.42;;;;;;;;;;6159436;28;20043;-55
2022/10/05 06:10:00;;;;;;;128.60;50.03;;;;;;;;;;6158630;28;20051;-51
2022/10/05 06:13:07;;;;;;;161.60;54.47;;;;;;;;;;6159243;28;20046;-52
2022/10/05 06:16:29;;;;;;;130.05;48.67;;;;;;;;;;6158573;28;20162;-52
2022/10/05 06:19:33;;;;;;;106.30;39.05;;;;;;;;;;6157644;28;20053;-52
2022/10/05 06:22:38;;;;;;;102.68;37.28;;;;;;;;;;6159536;28;20812;-51
2022/10/05 06:25:56;;;;;;;109.13;44.00;;;;;;;;;;6158515;28;20054;-53
2022/10/05 06:29:07;;;;;;;109.90;43.80;;;;;;;;;;6155475;28;20101;-56
2022/10/05 06:32:15;;;;;;;102.53;40.03;;;;;;;;;;6158629;28;20039;-53
2022/10/05 06:35:15;;;;;;;95.65;37.42;;;;;;;;;;6159539;28;20071;-53
2022/10/05 06:38:36;;;;;;;94.03;35.67;;;;;;;;;;6158186;28;20053;-50
2022/10/05 06:41:57;;;;;;;89.13;35.20;;;;;;;;;;6151658;28;20082;-51
2022/10/05 06:45:13;;;;;;;89.78;35.25;;;;;;;;;;6155841;28;20066;-51
2022/10/05 06:48:52;;;;;;;82.95;32.90;;;;;;;;;;6158624;28;20046;-68
2022/10/05 06:52:27;;;;;;;72.32;28.70;;;;;;;;;;6158698;28;20054;-67
2022/10/05 06:55:44;;;;;;;76.78;27.70;;;;;;;;;;6156500;28;20057;-67
2022/10/05 06:59:19;;;;;;;72.93;26.77;;;;;;;;;;6157648;28;20116;-64
2022/10/05 07:02:37;;;;;;;75.40;28.55;;;;;;;;;;6157835;28;20057;-63
2022/10/05 07:05:59;;;;;;;65.07;23.27;;;;;;;;;;6159152;28;20154;-66
2022/10/05 07:09:27;;;;;;;45.60;18.73;;;;;;;;;;6157687;28;21317;-63
2022/10/05 07:12:47;;;;;;;49.88;18.00;;;;;;;;;;6157810;28;20062;-61
2022/10/05 07:15:47;;;;;;;52.90;19.38;;;;;;;;;;6158924;28;20097;-55
2022/10/05 07:18:59;;;;;;;46.80;16.80;;;;;;;;;;6157078;28;20517;-58
2022/10/05 07:22:18;;;;;;;44.22;16.60;;;;;;;;;;6157786;28;20063;-51
2022/10/05 07:25:21;;;;;;;41.75;17.00;;;;;;;;;;6157290;28;20177;-56
2022/10/05 07:28:34;;;;;;;47.47;17.55;;;;;;;;;;6157495;28;20315;-53
2022/10/05 07:31:56;;;;;;;52.35;17.95;;;;;;;;;;6157540;28;20157;-57
2022/10/05 07:35:06;;;;;;;38.72;15.10;;;;;;;;;;6156932;28;20043;-57
2022/10/05 07:38:19;;;;;;;49.83;17.77;;;;;;;;;;6156718;28;20043;-55
2022/10/05 07:41:42;;;;;;;49.67;17.88;;;;;;;;;;6159327;28;20090;-55
2022/10/05 07:44:56;;;;;;;47.63;17.85;;;;;;;;;;6158883;28;20063;-56
2022/10/05 07:48:17;;;;;;;56.72;18.45;;;;;;;;;;6159180;28;20534;-59
2022/10/05 07:51:18;;;;;;;49.78;18.27;;;;;;;;;;6157176;28;20858;-57
2022/10/05 07:54:28;;;;;;;48.05;18.33;;;;;;;;;;6158156;28;20131;-55
2022/10/05 07:57:58;;;;;;;52.35;20.02;;;;;;;;;;6158110;28;20051;-53
2022/10/05 08:01:19;;;;;;;44.50;17.85;;;;;;;;;;6154000;28;20058;-55
2022/10/05 08:04:26;;;;;;;50.97;17.40;;;;;;;;;;6156694;28;20516;-54
2022/10/05 08:07:29;;;;;;;42.40;15.88;;;;;;;;;;6156883;28;20533;-51
2022/10/05 08:10:51;;;;;;;42.03;16.13;;;;;;;;;;6155912;28;20074;-54
2022/10/05 08:14:05;;;;;;;39.67;14.52;;;;;;;;;;6157724;28;20051;-56
2022/10/05 08:17:38;;;;;;;34.20;13.43;;;;;;;;;;6156505;28;20134;-55
2022/10/05 08:20:52;;;;;;;32.25;12.40;;;;;;;;;;6139775;28;20055;-54
2022/10/05 08:24:14;;;;;;;31.13;12.70;;;;;;;;;;6157013;28;20050;-56
2022/10/05 08:27:18;;;;;;;;;;;;;;;;;;6159227;28;20065;-55
2022/10/05 08:30:19;;;;;;;27.92;10.00;;;;;;;;;;6154806;28;19926;-57
2022/10/05 08:33:21;;;;;;;28.00;10.43;;;;;;;;;;6157183;28;20050;-59
2022/10/05 08:36:43;;;;;;;;;;;;;;;;;;6158403;28;20054;-57
2022/10/05 08:39:51;;;;;;;31.33;10.93;;;;;;;;;;6142410;28;20561;-57
2022/10/05 08:43:21;;;;;;;22.52;9.20;;;;;;;;;;6156713;28;20177;-58
2022/10/05 08:46:30;;;;;;;26.75;9.50;;;;;;;;;;6157254;28;20065;-60
2022/10/05 08:50:10;;;;;;;23.40;9.55;;;;;;;;;;6155561;28;20050;-59
2022/10/05 08:53:24;;;;;;;26.95;8.90;;;;;;;;;;6157484;28;20573;-53
2022/10/05 08:56:48;;;;;;;22.50;8.38;;;;;;;;;;6156461;28;20039;-58
2022/10/05 09:00:02;;;;;;;26.65;9.65;;;;;;;;;;6153681;28;20109;-58
2022/10/05 09:03:33;;;;;;;19.33;8.27;;;;;;;;;;6155613;28;20054;-57
2022/10/05 09:07:11;;;;;;;20.85;8.23;;;;;;;;;;6157320;28;20059;-58
2022/10/05 09:10:28;;;;;;;24.92;9.13;;;;;;;;;;6155053;28;20173;-57
2022/10/05 09:13:35;;;;;;;20.48;8.13;;;;;;;;;;6159476;28;20074;-57
2022/10/05 09:16:48;;;;;;;22.23;8.05;;;;;;;;;;6161820;28;20063;-57
2022/10/05 09:20:09;;;;;;;22.00;8.80;;;;;;;;;;6159704;28;20050;-61
2022/10/05 09:23:13;;;;;;;19.50;8.15;;;;;;;;;;6161831;28;20050;-57
2022/10/05 09:26:42;;;;;;;22.50;8.23;;;;;;;;;;6160114;28;20043;-58
2022/10/05 09:30:09;;;;;;;18.98;8.27;;;;;;;;;;6159376;28;20181;-60
2022/10/05 09:33:12;;;;;;;22.98;9.07;;;;;;;;;;6150928;28;20462;-57
2022/10/05 09:36:47;;;;;;;16.35;7.93;;;;;;;;;;6160783;28;21357;-57
2022/10/05 09:40:18;;;;;;;18.92;7.40;;;;;;;;;;6158592;28;20094;-58
2022/10/05 09:43:29;;;;;;;16.13;7.27;;;;;;;;;;6160136;28;20062;-57
2022/10/05 09:46:38;;;;;;;18.77;7.97;;;;;;;;;;6160480;28;20073;-56
2022/10/05 09:50:17;;;;;;;19.05;7.85;;;;;;;;;;6157720;28;20130;-59
2022/10/05 09:53:20;;;;;;;21.30;8.23;;;;;;;;;;6160569;28;20070;-58
2022/10/05 09:56:43;;;;;;;24.52;8.27;;;;;;;;;;6158036;28;20133;-61
2022/10/05 10:00:06;;;;;;;17.02;7.68;;;;;;;;;;6159402;28;20586;-57
2022/10/05 10:03:56;;;;;;;18.80;8.10;;;;;;;;;;6160556;28;20051;-59
2022/10/05 10:07:20;;;;;;;20.40;8.05;;;;;;;;;;6160248;28;20057;-57
2022/10/05 10:10:47;;;;;;;17.63;8.13;;;;;;;;;;6158593;28;20054;-59
2022/10/05 10:14:18;;;;;;;17.65;8.18;;;;;;;;;;6160351;28;20502;-57
2022/10/05 10:17:18;;;;;;;17.33;7.85;;;;;;;;;;6160671;28;20069;-70
2022/10/05 10:20:24;;;;;;;19.02;8.00;;;;;;;;;;6151976;28;20054;-57
2022/10/05 10:24:00;;;;;;;25.80;9.65;;;;;;;;;;6158948;28;20086;-60
2022/10/05 10:27:06;;;;;;;19.33;8.93;;;;;;;;;;6062356;28;20448;-57
2022/10/05 10:30:26;;;;;;;19.30;8.10;;;;;;;;;;6157188;28;20072;-54
2022/10/05 10:33:56;;;;;;;21.75;8.93;;;;;;;;;;6159642;28;20074;-60
2022/10/05 10:37:16;;;;;;;18.02;7.32;;;;;;;;;;6159229;28;20516;-58
2022/10/05 10:40:45;;;;;;;15.93;8.57;;;;;;;;;;6151461;28;20216;-60
2022/10/05 10:44:10;;;;;;;20.42;7.85;;;;;;;;;;6156095;28;20924;-54
2022/10/05 10:47:29;;;;;;;17.63;8.05;;;;;;;;;;6158794;28;20073;-60
2022/10/05 10:51:10;;;;;;;21.50;8.30;;;;;;;;;;6155801;28;20125;-61
2022/10/05 10:54:33;;;;;;;20.85;8.90;;;;;;;;;;6158160;28;21844;-57
2022/10/05 10:57:50;;;;;;;19.15;7.70;;;;;;;;;;6157808;28;20133;-60
2022/10/05 11:01:12;;;;;;;14.40;7.63;;;;;;;;;;6155864;28;20461;-61
2022/10/05 11:04:44;;;;;;;16.33;7.45;;;;;;;;;;6158804;28;20449;-61
2022/10/05 11:07:54;;;;;;;16.47;7.77;;;;;;;;;;6157913;28;20082;-60
2022/10/05 11:11:32;;;;;;;15.70;7.60;;;;;;;;;;6155305;28;20985;-58
2022/10/05 11:14:56;;;;;;;18.85;7.82;;;;;;;;;;6155786;28;20065;-62
2022/10/05 11:18:02;;;;;;;18.52;7.82;;;;;;;;;;6157566;28;20042;-60
2022/10/05 11:21:05;;;;;;;17.00;7.57;;;;;;;;;;6156252;28;20042;-60
2022/10/05 11:24:18;;;;;;;18.20;8.50;;;;;;;;;;6158094;28;20085;-60
2022/10/05 11:27:19;;;;;;;;;;;;;;;;;;6157290;28;20428;-57
2022/10/05 11:30:43;;;;;;;15.52;7.68;;;;;;;;;;6156557;28;19930;-59
2022/10/05 11:34:02;;;;;;;15.75;7.63;;;;;;;;;;6157706;28;20047;-60
2022/10/05 11:37:12;;;;;;;18.65;7.68;;;;;;;;;;6156345;28;20090;-61
2022/10/05 11:40:41;;;;;;;16.90;7.50;;;;;;;;;;6154684;28;20070;-59
2022/10/05 11:43:48;;;;;;;13.80;7.63;;;;;;;;;;6157683;28;20142;-60
2022/10/05 11:47:16;;;;;;;18.73;7.95;;;;;;;;;;6157335;28;20051;-57
2022/10/05 11:50:24;;;;;;;15.00;7.50;;;;;;;;;;6156511;28;20129;-61
2022/10/05 11:53:32;;;;;;;15.60;7.50;;;;;;;;;;6156110;28;20152;-61
2022/10/05 11:56:59;;;;;;;21.95;7.85;;;;;;;;;;6154987;28;20051;-61
2022/10/05 12:00:17;;;;;;;17.38;7.47;;;;;;;;;;6143870;28;20046;-59
2022/10/05 12:03:32;;;;;;;13.98;7.15;;;;;;;;;;6157124;28;20586;-60
2022/10/05 12:06:51;;;;;;;15.90;7.38;;;;;;;;;;6155475;28;20047;-60
2022/10/05 12:10:35;;;;;;;14.50;7.47;;;;;;;;;;6154608;28;20128;-61
2022/10/05 12:13:49;;;;;;;15.02;7.57;;;;;;;;;;6157091;28;20050;-61
2022/10/05 12:17:17;;;;;;;17.30;7.47;;;;;;;;;;6155310;28;20735;-55
2022/10/05 12:20:32;;;;;;;19.42;7.50;;;;;;;;;;6145864;28;20070;-58
2022/10/05 12:23:38;;;;;;;18.90;8.02;;;;;;;;;;6155072;28;20034;-58
2022/10/05 12:26:46;;;;;;;16.73;7.97;;;;;;;;;;6154595;28;20051;-59
2022/10/05 12:30:04;;;;;;;14.73;7.95;;;;;;;;;;6156424;28;20594;-56
2022/10/05 12:33:19;;;;;;;18.48;8.15;;;;;;;;;;6156491;28;20043;-60
2022/10/05 12:36:33;;;;;;;26.50;13.35;;;;;;;;;;6156233;28;20137;-60
2022/10/05 12:39:51;;;;;;;16.15;7.32;;;;;;;;;;6154920;28;20070;-60
2022/10/05 12:43:11;;;;;;;16.77;7.50;;;;;;;;;;6156411;28;20057;-60
2022/10/05 12:46:28;;;;;;;15.63;7.90;;;;;;;;;;6156329;28;20063;-58
2022/10/05 12:49:48;;;;;;;18.95;7.47;;;;;;;;;;6159841;28;20043;-59
2022/10/05 12:53:14;;;;;;;17.77;7.35;;;;;;;;;;6161270;28;20055;-59
2022/10/05 12:56:30;;;;;;;16.10;7.65;;;;;;;;;;6161404;28;20161;-60
2022/10/05 12:59:36;;;;;;;15.18;7.97;;;;;;;;;;6160463;28;20084;-60
2022/10/05 13:02:56;;;;;;;17.88;9.32;;;;;;;;;;6159639;28;20138;-59
2022/10/05 13:06:19;;;;;;;21.15;12.23;;;;;;;;;;6160584;28;20051;-59
2022/10/05 13:09:31;;;;;;;21.10;10.70;;;;;;;;;;6159998;28;20089;-58
2022/10/05 13:12:40;;;;;;;;;;;;;;;;;;6161067;28;20043;-55
2022/10/05 13:15:50;;;;;;;28.33;17.50;;;;;;;;;;6159791;28;20396;-60
2022/10/05 13:19:21;;;;;;;32.65;16.42;;;;;;;;;;6159461;28;20607;-59
2022/10/05 13:22:53;;;;;;;22.42;11.80;;;;;;;;;;6161111;28;20203;-57
2022/10/05 13:26:02;;;;;;;22.30;11.57;;;;;;;;;;6161289;28;20517;-56
2022/10/05 13:29:17;;;;;;;30.60;11.50;;;;;;;;;;6157480;28;20042;-55
2022/10/05 13:32:32;;;;;;;28.30;12.98;;;;;;;;;;6159387;28;20613;-57
2022/10/05 13:35:43;;;;;;;22.10;11.02;;;;;;;;;;6159844;28;20141;-57
2022/10/05 13:38:59;;;;;;;25.48;13.18;;;;;;;;;;6158822;28;20050;-54
2022/10/05 13:42:25;;;;;;;21.38;11.73;;;;;;;;;;6158872;28;20410;-57
2022/10/05 13:45:35;;;;;;;44.00;24.23;;;;;;;;;;6159237;28;20054;-54
2022/10/05 13:48:58;;;;;;;37.28;18.95;;;;;;;;;;6150332;28;20597;-56
2022/10/05 13:52:07;;;;;;;47.25;24.05;;;;;;;;;;6160370;28;20109;-62
2022/10/05 13:55:21;;;;;;;32.97;16.58;;;;;;;;;;6159525;28;20054;-59
2022/10/05 13:58:41;;;;;;;29.10;15.18;;;;;;;;;;6155643;28;20055;-58
2022/10/05 14:01:58;;;;;;;27.52;11.98;;;;;;;;;;6159705;28;20533;-54
2022/10/05 14:05:14;;;;;;;22.17;9.25;;;;;;;;;;6159824;28;20078;-57
2022/10/05 14:08:16;;;;;;;22.75;12.68;;;;;;;;;;6157528;28;20073;-55
2022/10/05 14:11:22;;;;;;;25.90;12.35;;;;;;;;;;6159077;28;20062;-58
2022/10/05 14:14:27;;;;;;;19.63;8.77;;;;;;;;;;6160044;28;20418;-60
2022/10/05 14:17:30;;;;;;;21.67;12.32;;;;;;;;;;6159970;28;20050;-57
2022/10/05 14:20:33;;;;;;;23.85;10.43;;;;;;;;;;6156495;28;20043;-61
2022/10/05 14:23:33;;;;;;;25.77;13.00;;;;;;;;;;6158768;28;20189;-61
2022/10/05 14:26:36;;;;;;;21.05;10.65;;;;;;;;;;6158805;28;20506;-62
2022/10/05 14:29:37;;;;;;;22.65;11.32;;;;;;;;;;6157496;28;20517;-62
2022/10/05 14:33:02;;;;;;;31.35;14.88;;;;;;;;;;6157761;28;20054;-61
2022/10/05 14:36:10;;;;;;;22.75;10.10;;;;;;;;;;6159709;28;20061;-61
2022/10/05 14:39:12;;;;;;;20.60;9.93;;;;;;;;;;6157311;28;20066;-61
2022/10/05 14:42:16;;;;;;;20.83;10.35;;;;;;;;;;6156317;28;20050;-61
2022/10/05 14:45:24;;;;;;;19.77;9.68;;;;;;;;;;6159153;28;20626;-60
2022/10/05 14:48:28;;;;;;;27.75;11.55;;;;;;;;;;6157238;28;20062;-59
2022/10/05 14:51:31;;;;;;;18.20;9.38;;;;;;;;;;6158825;28;20046;-56
2022/10/05 14:54:40;;;;;;;;;;;;;;;;;;6157455;28;20047;-59
2022/10/05 14:57:52;;;;;;;24.48;12.07;;;;;;;;;;6159553;28;20897;-62
2022/10/05 15:01:21;;;;;;;22.02;9.85;;;;;;;;;;6157565;28;20147;-62
2022/10/05 15:04:41;;;;;;;27.17;11.18;;;;;;;;;;6157868;28;20592;-62
2022/10/05 15:07:46;;;;;;;20.40;9.90;;;;;;;;;;6158191;28;20136;-61
2022/10/05 15:10:59;;;;;;;16.40;8.43;;;;;;;;;;6154837;28;20517;-59
2022/10/05 15:14:00;;;;;;;20.98;9.18;;;;;;;;;;6158154;28;20082;-59
2022/10/05 15:17:16;;;;;;;21.70;11.80;;;;;;;;;;6147710;28;20042;-60
2022/10/05 15:20:33;;;;;;;17.33;8.52;;;;;;;;;;6155874;28;20061;-61
2022/10/05 15:23:41;;;;;;;14.98;8.40;;;;;;;;;;6157163;28;20043;-61
2022/10/05 15:26:59;;;;;;;29.33;15.40;;;;;;;;;;6158266;28;20134;-54
2022/10/05 15:30:17;;;;;;;16.10;7.38;;;;;;;;;;6155938;28;20086;-60
2022/10/05 15:33:32;;;;;;;17.05;7.20;;;;;;;;;;6156542;28;20062;-55
2022/10/05 15:36:51;;;;;;;17.73;8.20;;;;;;;;;;6157364;28;20498;-53
2022/10/05 15:39:56;;;;;;;16.60;7.53;;;;;;;;;;6155324;28;20057;-56
2022/10/05 15:43:03;;;;;;;20.83;8.70;;;;;;;;;;6155324;28;20045;-56
2022/10/05 15:46:27;;;;;;;21.48;11.40;;;;;;;;;;6156289;28;20054;-54
2022/10/05 15:49:37;;;;;;;20.15;7.70;;;;;;;;;;6155258;28;20137;-54
2022/10/05 15:53:19;;;;;;;19.90;9.35;;;;;;;;;;6157858;28;20182;-61
2022/10/05 15:56:32;;;;;;;19.73;8.82;;;;;;;;;;6148131;28;20082;-54
2022/10/05 15:59:42;;;;;;;20.85;9.73;;;;;;;;;;6154972;28;20513;-56
2022/10/05 16:03:01;;;;;;;19.48;9.23;;;;;;;;;;6157003;28;20063;-60
2022/10/05 16:10:14;;;;;;;21.88;8.70;;;;;;;;;;6156567;28;20074;-52
2022/10/05 16:13:24;;;;;;;16.73;8.32;;;;;;;;;;6156190;28;20055;-55
2022/10/05 16:16:34;;;;;;;21.27;9.85;;;;;;;;;;6155971;28;20162;-62
2022/10/05 16:19:45;;;;;;;23.95;10.38;;;;;;;;;;6155938;28;20058;-60
2022/10/05 16:23:08;;;;;;;25.83;9.65;;;;;;;;;;6156752;28;20053;-56
2022/10/05 16:26:18;;;;;;;22.30;10.43;;;;;;;;;;6155735;28;20414;-60
2022/10/05 16:29:31;;;;;;;24.92;10.20;;;;;;;;;;6155151;28;20422;-61
2022/10/05 16:32:57;;;;;;;22.98;11.43;;;;;;;;;;6156745;28;20837;-59
2022/10/05 16:36:21;;;;;;;21.85;9.30;;;;;;;;;;6149554;28;20049;-50
2022/10/05 16:39:33;;;;;;;23.00;10.32;;;;;;;;;;6152574;28;20138;-58
2022/10/05 16:42:46;;;;;;;27.58;12.43;;;;;;;;;;6153122;28;20387;-59
2022/10/05 16:46:26;;;;;;;24.23;10.82;;;;;;;;;;6152669;28;20146;-56
2022/10/05 16:49:41;;;;;;;23.13;10.43;;;;;;;;;;6148625;28;20722;-54
2022/10/05 16:52:48;;;;;;;26.15;10.88;;;;;;;;;;6154761;28;20505;-58
2022/10/05 16:55:57;;;;;;;44.47;20.98;;;;;;;;;;6155317;28;20146;-53
2022/10/05 16:59:38;;;;;;;35.35;16.50;;;;;;;;;;6154226;28;20073;-54
2022/10/05 17:03:03;;;;;;;39.20;16.60;;;;;;;;;;6150371;28;20154;-54
2022/10/05 17:06:21;;;;;;;49.63;24.35;;;;;;;;;;6156322;28;20038;-50
2022/10/05 17:09:38;;;;;;;52.08;24.08;;;;;;;;;;6153914;28;20049;-50
2022/10/05 17:12:50;;;;;;;43.67;24.73;;;;;;;;;;6155035;28;20059;-51
2022/10/05 17:15:50;;;;;;;;;;;;;;;;;;6156757;28;20169;-55
2022/10/05 17:19:18;;;;;;;44.35;20.65;;;;;;;;;;6153492;28;19941;-52
2022/10/05 17:22:38;;;;;;;31.63;14.98;;;;;;;;;;6154160;28;20058;-62
2022/10/05 17:25:54;;;;;;;29.55;13.02;;;;;;;;;;6154405;28;20057;-61
2022/10/05 17:29:08;;;;;;;32.10;14.65;;;;;;;;;;6153034;28;20133;-55
2022/10/05 17:32:28;;;;;;;24.80;10.02;;;;;;;;;;6151763;28;20117;-54
2022/10/05 17:36:10;;;;;;;29.40;12.32;;;;;;;;;;6156359;28;20069;-62
2022/10/05 17:39:14;;;;;;;30.98;14.27;;;;;;;;;;6157965;28;20042;-62
2022/10/05 17:42:28;;;;;;;27.10;13.25;;;;;;;;;;6159848;28;20043;-55
2022/10/05 17:45:28;;;;;;;65.88;23.17;;;;;;;;;;6160685;28;20145;-60
2022/10/05 17:48:47;;;;;;;23.95;10.77;;;;;;;;;;6157792;28;20137;-60
2022/10/05 17:55:24;;;;;;;43.92;18.65;;;;;;;;;;6158560;28;20101;-58
2022/10/05 17:58:27;;;;;;;30.85;16.67;;;;;;;;;;6158804;28;20043;-54
2022/10/05 18:01:32;;;;;;;30.85;16.50;;;;;;;;;;6151133;28;20486;-50
2022/10/05 18:04:38;;;;;;;36.78;16.88;;;;;;;;;;6159976;28;20046;-54
2022/10/05 18:07:40;;;;;;;25.08;11.80;;;;;;;;;;6158991;28;20125;-56
2022/10/05 18:11:15;;;;;;;25.20;11.30;;;;;;;;;;6155764;28;20573;-59
2022/10/05 18:14:25;;;;;;;24.83;10.20;;;;;;;;;;6157126;28;20065;-55
2022/10/05 18:17:56;;;;;;;19.23;8.57;;;;;;;;;;6157911;28;20141;-52
2022/10/05 18:21:19;;;;;;;22.45;9.32;;;;;;;;;;6150143;28;20142;-53
2022/10/05 18:24:37;;;;;;;27.23;9.68;;;;;;;;;;6153120;28;20181;-57
2022/10/05 18:28:21;;;;;;;28.35;10.65;;;;;;;;;;6153112;28;20050;-55
2022/10/05 18:31:31;;;;;;;27.35;9.18;;;;;;;;;;6145750;28;20054;-56
2022/10/05 18:34:50;;;;;;;24.63;9.95;;;;;;;;;;6152414;28;20199;-52
2022/10/05 18:38:06;;;;;;;26.80;10.43;;;;;;;;;;6151743;28;20811;-52
2022/10/05 18:41:50;;;;;;;27.27;10.20;;;;;;;;;;6152958;28;20047;-52
2022/10/05 18:44:58;;;;;;;37.63;14.93;;;;;;;;;;6149890;28;20510;-57
2022/10/05 18:48:16;;;;;;;44.83;20.33;;;;;;;;;;6157300;28;20158;-60
2022/10/05 18:51:16;;;;;;;61.28;28.98;;;;;;;;;;6157454;28;20063;-57
2022/10/05 18:54:39;;;;;;;58.28;27.45;;;;;;;;;;6159128;28;20518;-61
2022/10/05 18:57:58;;;;;;;;;;;;;;;;;;6158731;28;20050;-53
2022/10/05 19:01:19;;;;;;;41.70;19.02;;;;;;;;;;6157062;28;20021;-52
2022/10/05 19:04:44;;;;;;;36.03;17.15;;;;;;;;;;6162049;28;20145;-56
2022/10/05 19:08:03;;;;;;;44.28;16.58;;;;;;;;;;6151245;28;20057;-56
2022/10/05 19:11:22;;;;;;;42.45;16.98;;;;;;;;;;6159312;28;20692;-53
2022/10/05 19:14:31;;;;;;;43.88;17.75;;;;;;;;;;6158642;28;20053;-57